North Truro, MA (02652)

11:59 PM EDT on August 31, 2015 (GMT -0400)
Great Hills | | Change Station
CLOSE
Current Station
Personal Weather Station
Location: Truro, MA
Elevation: 26 ft
Nearby Weather Stations

Elev 26 ft 41.99 °N, 70.08 °W | Updated 11 minutes ago

Clear
Clear
73.4 °F
Feels Like 71 °F
N
10.4
Wind Variable Wind from West

Today
High -- | Low -- °F
--% Chance of Precip.
Yesterday
High -- | Low -- °F
Precip. -- in
6:04 AM 7:16 PM
Waning Gibbous, 92% visible
Pressure 29.95 in
Visibility 8.0 miles
Clouds Clear
Heat Index 71 °F
Dew Point 71 °F
Humidity 91%
Rainfall 0.00 in
Snow Depth Not available.
UV 0 out of 12
Pollen 10.80 out of 12
Air Quality Not available.
Flu Activity Not available.
METAR KCQX 010352Z AUTO 00000KT 8SM CLR 23/21 A2994 RMK AO2 SLP140 T02280206
Pressure 29.95 in
Visibility 8.0 miles
Clouds Clear
Heat Index 71 °F
Dew Point 71 °F
Humidity 91%
Rainfall 0.00 in
Snow Depth Not available.
UV 0 out of 12
Pollen 10.80 out of 12
Air Quality Not available.
Flu Activity Not available.
METAR KCQX 010352Z AUTO 00000KT 8SM CLR 23/21 A2994 RMK AO2 SLP140 T02280206

10-Day Weather Forecast

×

Almanac

Astronomy

Aug. 31, 2015 Rise Set
Actual Time
Civil Twilight
Nautical Twilight
Astronomical Twilight
Moon
Length of Visible Light
Length of Day
Tomorrow will be .
, % of the Moon is Illuminated

Today's Extremes

State Highs State Lows

Community

WunderPhotos

Upload Photos

1,851,475 photos uploaded!

WunderBlogs® & News

Nearby

Air Quality

  Air Quality AQ Index Pollutant
Not available.

Snow Depth

Station Depth Elevation

Earthquake Activity

City Distance Mag. Time & Date
Minimum magnitude displayed is 2.5.

Coastal Water Temperatures

Place Temperature

Stations

Nearby Weather Stations

Station Location Temp. Windchill Dew Point Humidity Wind Precip. Elev Updated Type